Lenkerville, Pennsylvania
Current Conditions -  °F | °C
As of 9:53 AM on Tuesday 21 Oct 2014 (Local Time) from KSEG Reporting Station
Overcast Overcast  
Wind Chill: 54°   Ceiling: 4200
Heat Index: 54°   Visibility: 8mi
Dew Point: 49°   Wind: 6mph
Humidity: 83%   Direction: 170°S
Pressure: 29.88"   Gusts: NA
Location:  40.5877°N, 76.8837°W
Report Text: KSEG 211353Z AUTO 17005KT 8SM BKN042 OVC075 12/09 A2988 RMK AO2 SLP117 T01220094
Loading
Personal Weather Stations






























Interactive Weather Map
Tropical Storm Tracking
New forecast layout! Learn more

10-Day Weather Forecast

Advertisements
Track Severe Weather on mobile